Time;durP1;ratioP1;P1;durP2;ratioP2;P2;SDS_P1;SDS_P2;PMS_P1;PMS_P2;Temp;Humidity;BMP_temperature;BMP_pressure;BME280_temperature;BME280_humidity;BME280_pressure;Samples;Min_cycle;Max_cycle;Signal;HPM_P1;HPM_P2
2021/01/18 00:01:22;;;;;;;36.80;17.42;;;8.00;99.90;;;;;;4975856;28;20201;-81
2021/01/18 00:03:49;;;;;;;33.33;18.60;;;8.10;99.90;;;;;;4975713;28;20200;-81
2021/01/18 00:06:17;;;;;;;30.98;17.67;;;8.10;99.90;;;;;;4975868;28;20225;-81
2021/01/18 00:08:44;;;;;;;32.30;17.00;;;8.20;99.90;;;;;;4975873;28;20197;-82
2021/01/18 00:11:12;;;;;;;28.42;17.27;;;8.20;99.90;;;;;;4975568;28;20197;-81
2021/01/18 00:13:39;;;;;;;29.48;16.80;;;8.10;99.90;;;;;;4975658;28;20194;-82
2021/01/18 00:16:05;;;;;;;30.17;14.77;;;8.10;99.90;;;;;;4975551;28;20205;-81
2021/01/18 00:18:33;;;;;;;32.88;16.17;;;8.00;99.90;;;;;;4975460;28;20206;-81
2021/01/18 00:20:59;;;;;;;21.70;13.75;;;8.00;99.90;;;;;;4975600;28;20242;-82
2021/01/18 00:23:25;;;;;;;23.92;16.10;;;8.10;99.90;;;;;;4975478;28;20722;-81
2021/01/18 00:25:52;;;;;;;27.08;15.10;;;8.10;99.90;;;;;;4975252;28;20217;-81
2021/01/18 00:28:19;;;;;;;30.10;15.55;;;8.20;99.90;;;;;;4975291;28;20209;-81
2021/01/18 00:30:45;;;;;;;37.67;16.13;;;8.30;99.90;;;;;;4975200;28;20197;-82
2021/01/18 00:33:11;;;;;;;43.55;15.20;;;8.10;99.90;;;;;;4975181;28;20194;-82
2021/01/18 00:35:38;;;;;;;28.38;14.18;;;8.20;99.90;;;;;;4975310;28;20560;-82
2021/01/18 00:38:04;;;;;;;26.42;13.70;;;8.20;99.90;;;;;;4975158;28;20204;-82
2021/01/18 00:40:30;;;;;;;19.85;12.82;;;8.30;99.90;;;;;;4975114;28;20193;-82
2021/01/18 00:42:57;;;;;;;25.65;11.50;;;8.10;99.90;;;;;;4975242;28;20193;-82
2021/01/18 00:45:25;;;;;;;21.42;10.60;;;8.00;99.90;;;;;;4974744;28;20570;-82
2021/01/18 00:47:54;;;;;;;22.75;11.40;;;8.00;99.90;;;;;;4974976;28;20207;-82
2021/01/18 00:50:22;;;;;;;14.75;10.02;;;7.80;99.90;;;;;;4974839;28;20701;-82
2021/01/18 00:52:50;;;;;;;19.77;10.48;;;8.00;99.90;;;;;;4975025;28;20282;-82
2021/01/18 00:55:18;;;;;;;25.80;10.13;;;8.10;99.90;;;;;;4974951;28;20197;-82
2021/01/18 00:57:44;;;;;;;21.40;9.63;;;8.00;99.90;;;;;;4974941;28;20201;-82
2021/01/18 01:00:12;;;;;;;25.20;9.98;;;7.90;99.90;;;;;;4974612;28;20197;-82
2021/01/18 01:02:40;;;;;;;21.00;8.57;;;8.00;99.90;;;;;;4974906;28;20198;-82
2021/01/18 01:05:08;;;;;;;15.52;8.60;;;8.10;99.90;;;;;;4974670;28;20205;-82
2021/01/18 01:07:39;;;;;;;18.85;9.13;;;8.10;99.90;;;;;;4974274;28;20197;-82
2021/01/18 01:10:06;;;;;;;15.75;8.02;;;8.10;99.90;;;;;;4974499;28;20676;-82
2021/01/18 01:12:33;;;;;;;13.90;8.95;;;8.20;99.90;;;;;;4974604;28;20282;-82
2021/01/18 01:15:00;;;;;;;15.30;10.30;;;8.20;99.90;;;;;;4974474;28;20685;-82
2021/01/18 01:17:26;;;;;;;13.48;9.00;;;8.30;99.90;;;;;;4974617;28;20201;-82
2021/01/18 01:19:53;;;;;;;17.88;9.65;;;8.30;99.90;;;;;;4974093;28;20197;-82
2021/01/18 01:22:20;;;;;;;22.40;10.43;;;8.20;99.90;;;;;;4974373;28;20704;-81
2021/01/18 01:24:46;;;;;;;16.08;10.77;;;8.10;99.90;;;;;;4974507;28;20197;-82
2021/01/18 01:27:12;;;;;;;13.30;8.93;;;8.10;99.90;;;;;;4974300;28;20229;-82
2021/01/18 01:29:38;;;;;;;24.30;11.30;;;8.30;99.90;;;;;;4974519;28;20202;-82
2021/01/18 01:32:05;;;;;;;18.30;13.48;;;8.40;99.90;;;;;;4974601;28;20197;-82
2021/01/18 01:34:33;;;;;;;19.50;13.55;;;8.30;99.90;;;;;;4974472;28;20649;-82
2021/01/18 01:37:00;;;;;;;28.67;14.90;;;8.30;99.90;;;;;;4974343;28;20209;-82
2021/01/18 01:39:26;;;;;;;22.70;13.95;;;8.40;99.90;;;;;;4974276;28;20252;-82
2021/01/18 01:41:52;;;;;;;31.60;13.98;;;8.40;99.90;;;;;;4974262;28;20198;-82
2021/01/18 01:44:19;;;;;;;18.65;11.48;;;8.40;99.90;;;;;;4974414;28;20225;-82
2021/01/18 01:46:45;;;;;;;23.70;12.50;;;8.40;99.90;;;;;;4974150;28;20244;-82
2021/01/18 01:49:12;;;;;;;18.08;11.77;;;8.30;99.90;;;;;;4974152;28;20228;-82
2021/01/18 01:51:38;;;;;;;20.65;12.10;;;8.20;99.90;;;;;;4974104;28;20217;-82
2021/01/18 01:54:05;;;;;;;30.50;15.48;;;8.40;99.90;;;;;;4974058;28;20224;-82
2021/01/18 01:56:32;;;;;;;36.53;13.70;;;8.40;99.90;;;;;;4974323;28;20204;-82
2021/01/18 01:58:59;;;;;;;13.23;11.20;;;8.30;99.90;;;;;;4973990;28;20194;-82
2021/01/18 02:01:26;;;;;;;22.48;12.95;;;8.30;99.90;;;;;;4973999;28;20297;-82
2021/01/18 02:03:52;;;;;;;24.77;11.50;;;8.30;99.90;;;;;;4973963;28;20680;-82
2021/01/18 02:06:19;;;;;;;22.85;10.82;;;8.20;99.90;;;;;;4973857;28;20711;-82
2021/01/18 02:08:46;;;;;;;19.85;10.68;;;8.20;99.90;;;;;;4974104;28;20209;-81
2021/01/18 02:11:14;;;;;;;14.43;10.50;;;8.30;99.90;;;;;;4974054;28;20197;-82
2021/01/18 02:13:58;;;;;;;20.98;10.50;;;8.30;99.90;;;;;;4974131;28;20228;-82
2021/01/18 02:16:29;;;;;;;17.63;10.30;;;8.30;99.90;;;;;;4974292;28;20288;-82
2021/01/18 02:19:26;;;;;;;19.40;11.27;;;8.40;99.90;;;;;;4973967;28;20205;-82
2021/01/18 02:22:27;;;;;;;21.63;10.68;;;8.20;99.90;;;;;;4977557;28;20222;-82
2021/01/18 02:25:08;;;;;;;19.88;9.30;;;8.30;99.90;;;;;;4977683;28;20194;-82
2021/01/18 02:28:01;;;;;;;12.57;9.38;;;8.20;99.90;;;;;;4977666;28;20197;-82
2021/01/18 02:30:54;;;;;;;16.40;8.75;;;8.30;99.90;;;;;;4977747;28;20213;-82
2021/01/18 02:33:45;;;;;;;15.80;9.82;;;8.40;99.90;;;;;;4977542;28;20193;-82
2021/01/18 02:36:17;;;;;;;13.82;8.45;;;8.40;99.90;;;;;;4977355;28;20653;-82
2021/01/18 02:38:57;;;;;;;16.85;9.25;;;8.40;99.90;;;;;;4977139;28;20202;-82
2021/01/18 02:41:37;;;;;;;16.25;10.18;;;8.50;99.90;;;;;;4977366;28;20213;-82
2021/01/18 02:44:07;;;;;;;20.10;8.90;;;8.70;99.90;;;;;;4977249;28;20264;-82
2021/01/18 02:46:35;;;;;;;13.38;9.55;;;8.50;99.90;;;;;;4976900;28;20234;-82
2021/01/18 02:49:04;;;;;;;22.83;9.43;;;8.60;99.90;;;;;;4977267;28;20201;-81
2021/01/18 02:51:34;;;;;;;14.73;9.25;;;8.80;99.90;;;;;;4976993;28;20225;-82
2021/01/18 02:54:01;;;;;;;19.55;9.88;;;8.70;99.90;;;;;;4977113;28;20650;-82
2021/01/18 02:56:31;;;;;;;23.02;10.95;;;8.80;99.90;;;;;;4977091;28;20209;-82
2021/01/18 02:58:59;;;;;;;21.45;12.40;;;8.70;99.90;;;;;;4976769;28;20679;-82
2021/01/18 03:01:48;;;;;;;15.45;9.20;;;8.60;99.90;;;;;;4976895;28;20562;-82
2021/01/18 03:04:23;;;;;;;19.52;10.10;;;8.60;99.90;;;;;;4976594;28;20554;-82
2021/01/18 03:06:57;;;;;;;19.60;10.63;;;8.50;99.90;;;;;;4976778;28;20232;-82
2021/01/18 03:09:30;;;;;;;17.35;10.00;;;8.30;99.90;;;;;;4976884;28;20200;-82
2021/01/18 03:12:03;;;;;;;24.08;10.35;;;8.30;99.90;;;;;;4976973;28;20198;-82
2021/01/18 03:14:33;;;;;;;20.13;9.80;;;8.40;99.90;;;;;;4976810;28;20205;-82
2021/01/18 03:16:59;;;;;;;14.45;10.27;;;8.40;99.90;;;;;;4976675;28;20201;-82
2021/01/18 03:19:39;;;;;;;16.98;9.55;;;8.30;99.90;;;;;;4976605;28;20652;-81
2021/01/18 03:22:07;;;;;;;20.00;10.35;;;8.50;99.90;;;;;;4976743;28;20252;-82
2021/01/18 03:24:33;;;;;;;21.42;10.65;;;8.60;99.90;;;;;;4976502;28;20201;-82
2021/01/18 03:27:02;;;;;;;15.98;10.48;;;8.60;99.90;;;;;;4976300;28;20236;-82
2021/01/18 03:29:29;;;;;;;15.82;10.45;;;8.50;99.90;;;;;;4976348;28;20699;-81
2021/01/18 03:31:55;;;;;;;20.05;11.00;;;8.40;99.90;;;;;;4975900;28;20201;-81
2021/01/18 03:34:21;;;;;;;21.73;12.00;;;8.50;99.90;;;;;;4976540;28;20197;-82
2021/01/18 03:36:47;;;;;;;20.08;11.23;;;8.70;99.90;;;;;;4976314;28;20202;-82
2021/01/18 03:39:15;;;;;;;23.58;11.18;;;8.70;99.90;;;;;;4976192;28;20204;-81
2021/01/18 03:41:41;;;;;;;17.52;11.00;;;8.60;99.90;;;;;;4976155;28;20198;-81
2021/01/18 03:44:07;;;;;;;23.98;11.10;;;8.70;99.90;;;;;;4976270;28;20201;-82
2021/01/18 03:46:33;;;;;;;22.05;11.20;;;8.60;99.90;;;;;;4975990;28;20296;-82
2021/01/18 03:49:00;;;;;;;20.65;12.27;;;8.60;99.90;;;;;;4976098;28;20201;-82
2021/01/18 03:51:29;;;;;;;16.38;10.90;;;8.70;99.90;;;;;;4976184;28;20264;-82
2021/01/18 03:53:56;;;;;;;17.38;9.95;;;8.80;99.90;;;;;;4976068;28;20194;-82
2021/01/18 03:56:23;;;;;;;16.40;9.98;;;8.70;99.90;;;;;;4976066;28;20197;-82
2021/01/18 03:58:49;;;;;;;14.45;9.60;;;8.70;99.90;;;;;;4975819;28;20202;-82
2021/01/18 04:01:16;;;;;;;23.90;10.93;;;8.70;99.90;;;;;;4975816;28;20244;-82
2021/01/18 04:03:42;;;;;;;14.95;11.25;;;8.80;99.90;;;;;;4975760;28;20233;-82
2021/01/18 04:06:08;;;;;;;24.65;10.95;;;8.70;99.90;;;;;;4975775;28;20248;-82
2021/01/18 04:08:35;;;;;;;19.70;10.93;;;8.70;99.90;;;;;;4975831;28;20198;-82
2021/01/18 04:11:01;;;;;;;17.10;10.63;;;8.50;99.90;;;;;;4975603;28;20198;-82
2021/01/18 04:13:28;;;;;;;19.88;9.50;;;8.60;99.90;;;;;;4975642;28;20679;-82
2021/01/18 04:15:54;;;;;;;17.48;10.30;;;8.60;99.90;;;;;;4975692;28;20194;-82
2021/01/18 04:18:21;;;;;;;17.42;9.70;;;8.60;99.90;;;;;;4975314;28;20662;-82
2021/01/18 04:20:47;;;;;;;21.35;9.80;;;8.50;99.90;;;;;;4976625;28;20228;-82
2021/01/18 04:23:13;;;;;;;22.40;10.00;;;8.50;99.90;;;;;;4994158;28;20193;-82
2021/01/18 04:25:40;;;;;;;20.85;9.45;;;8.50;99.90;;;;;;4994818;28;20259;-82
2021/01/18 04:28:06;;;;;;;15.10;9.75;;;8.60;99.90;;;;;;4994689;28;20212;-82
2021/01/18 04:30:35;;;;;;;13.93;9.48;;;8.50;99.90;;;;;;4994882;28;20204;-82
2021/01/18 04:33:03;;;;;;;14.45;9.63;;;8.40;99.90;;;;;;4994699;28;20216;-82
2021/01/18 04:35:31;;;;;;;17.00;9.80;;;8.50;99.90;;;;;;4994683;28;20671;-82
2021/01/18 04:37:58;;;;;;;17.52;9.73;;;8.50;99.90;;;;;;4994633;28;20204;-82
2021/01/18 04:40:27;;;;;;;22.25;9.80;;;8.50;99.90;;;;;;4994651;28;20255;-81
2021/01/18 04:42:53;;;;;;;20.35;11.98;;;8.60;99.90;;;;;;4993726;28;20197;-82
2021/01/18 04:45:22;;;;;;;14.13;10.35;;;8.70;99.90;;;;;;4994170;28;20628;-81
2021/01/18 04:47:51;;;;;;;18.45;10.65;;;8.70;99.90;;;;;;4994486;28;20565;-81
2021/01/18 04:50:19;;;;;;;18.15;10.85;;;8.60;99.90;;;;;;4994430;28;20593;-82
2021/01/18 04:52:48;;;;;;;15.55;11.77;;;8.60;99.90;;;;;;4994392;28;20669;-82
2021/01/18 04:55:31;;;;;;;19.05;11.02;;;8.50;99.90;;;;;;4994450;28;20212;-82
2021/01/18 04:58:08;;;;;;;19.90;11.75;;;8.60;99.90;;;;;;4994286;28;20614;-82
2021/01/18 05:00:40;;;;;;;18.80;12.10;;;8.70;99.90;;;;;;4994302;28;20205;-82
2021/01/18 05:03:08;;;;;;;16.20;11.70;;;8.70;99.90;;;;;;4994239;28;20653;-82
2021/01/18 05:05:52;;;;;;;18.77;12.00;;;8.70;99.90;;;;;;4994171;28;20197;-82
2021/01/18 05:08:49;;;;;;;27.05;12.63;;;8.60;99.90;;;;;;4994431;28;20555;-82
2021/01/18 05:11:16;;;;;;;19.63;13.30;;;8.70;99.90;;;;;;4994278;28;20205;-82
2021/01/18 05:13:43;;;;;;;18.75;12.77;;;8.70;99.90;;;;;;4994004;28;20197;-82
2021/01/18 05:16:09;;;;;;;19.65;11.95;;;8.50;99.90;;;;;;4994214;28;20204;-82
2021/01/18 05:18:38;;;;;;;17.98;12.23;;;8.40;99.90;;;;;;4993964;28;20204;-82
2021/01/18 05:21:07;;;;;;;17.63;13.00;;;8.40;99.90;;;;;;4993810;28;20217;-82
2021/01/18 05:23:38;;;;;;;25.63;13.00;;;8.40;99.90;;;;;;4993928;28;20196;-82
2021/01/18 05:26:15;;;;;;;22.05;13.10;;;8.40;99.90;;;;;;4994005;28;20633;-82
2021/01/18 05:28:44;;;;;;;18.73;11.82;;;8.40;99.90;;;;;;4993943;28;20200;-82
2021/01/18 05:31:11;;;;;;;19.25;13.38;;;8.40;99.90;;;;;;4993907;28;20667;-82
2021/01/18 05:33:39;;;;;;;16.42;11.90;;;8.50;99.90;;;;;;4993857;28;20192;-82
2021/01/18 05:36:06;;;;;;;21.58;13.20;;;8.60;99.90;;;;;;4993716;28;20255;-82
2021/01/18 05:38:32;;;;;;;20.73;12.40;;;8.70;99.90;;;;;;4993735;28;20219;-81
2021/01/18 05:41:01;;;;;;;18.15;13.00;;;8.70;99.90;;;;;;4993796;28;20204;-82
2021/01/18 05:43:34;;;;;;;23.08;13.23;;;8.70;99.90;;;;;;4993648;28;20292;-82
2021/01/18 05:46:03;;;;;;;20.75;12.63;;;8.70;99.90;;;;;;4993451;28;20268;-82
2021/01/18 05:48:31;;;;;;;18.52;13.25;;;8.80;99.90;;;;;;4993614;28;20652;-82
2021/01/18 05:50:59;;;;;;;23.67;13.82;;;8.90;99.90;;;;;;4993682;28;20227;-82
2021/01/18 05:53:28;;;;;;;31.52;16.13;;;8.90;99.90;;;;;;4994548;28;20711;-82
2021/01/18 05:55:54;;;;;;;19.85;15.05;;;8.50;99.90;;;;;;4997681;28;20200;-82
2021/01/18 05:58:31;;;;;;;20.65;14.85;;;8.60;99.90;;;;;;4997367;28;20201;-82
2021/01/18 06:00:58;;;;;;;25.80;15.57;;;8.50;99.90;;;;;;4997613;28;20247;-81
2021/01/18 06:03:28;;;;;;;19.20;16.08;;;8.40;99.90;;;;;;4997458;28;20200;-82
2021/01/18 06:05:54;;;;;;;17.98;13.82;;;8.50;99.90;;;;;;4997374;28;20216;-82
2021/01/18 06:08:22;;;;;;;26.23;14.77;;;8.50;99.90;;;;;;4997417;28;20205;-82
2021/01/18 06:10:50;;;;;;;26.33;15.98;;;8.60;99.90;;;;;;4997333;28;20205;-82
2021/01/18 06:13:22;;;;;;;30.35;14.95;;;8.40;99.90;;;;;;4997374;28;20275;-82
2021/01/18 06:15:50;;;;;;;19.27;14.95;;;8.30;99.90;;;;;;4997388;28;20201;-81
2021/01/18 06:18:17;;;;;;;24.80;16.35;;;8.20;99.90;;;;;;4997072;28;20197;-82
2021/01/18 06:20:44;;;;;;;36.70;16.55;;;8.40;99.90;;;;;;4997212;28;20691;-82
2021/01/18 06:23:11;;;;;;;23.88;15.20;;;8.60;99.90;;;;;;4997120;28;20197;-82
2021/01/18 06:25:39;;;;;;;27.65;16.00;;;8.70;99.90;;;;;;4996966;28;20204;-82
2021/01/18 06:28:24;;;;;;;22.35;15.55;;;8.50;99.90;;;;;;4996993;28;20251;-82
2021/01/18 06:30:55;;;;;;;25.48;17.40;;;8.50;99.90;;;;;;4997016;28;20201;-81
2021/01/18 06:33:33;;;;;;;19.35;13.23;;;8.60;99.90;;;;;;4996992;28;20571;-82
2021/01/18 06:36:13;;;;;;;21.45;15.85;;;8.70;99.90;;;;;;4997065;28;20220;-82
2021/01/18 06:38:40;;;;;;;22.23;14.27;;;8.80;99.90;;;;;;4996801;28;20199;-82
2021/01/18 06:41:08;;;;;;;21.45;14.50;;;8.70;99.90;;;;;;4996830;28;20193;-82
2021/01/18 06:43:35;;;;;;;24.90;14.25;;;8.90;99.90;;;;;;4996708;28;20649;-82
2021/01/18 06:46:14;;;;;;;21.63;14.65;;;8.90;99.90;;;;;;4996374;28;20237;-82
2021/01/18 06:48:42;;;;;;;23.45;14.07;;;8.90;99.90;;;;;;4996644;28;20591;-82
2021/01/18 06:51:12;;;;;;;18.05;13.10;;;8.80;99.90;;;;;;4996554;28;20762;-81
2021/01/18 06:53:42;;;;;;;20.42;12.98;;;8.60;99.90;;;;;;4996569;28;20197;-82
2021/01/18 06:56:48;;;;;;;25.08;13.98;;;8.60;99.90;;;;;;4996618;28;20200;-82
2021/01/18 06:59:34;;;;;;;23.13;13.35;;;8.60;99.90;;;;;;4996498;28;20204;-82
2021/01/18 07:02:15;;;;;;;18.45;12.82;;;8.30;99.90;;;;;;4996703;28;20197;-82
2021/01/18 07:04:46;;;;;;;18.05;13.00;;;8.20;99.90;;;;;;4995952;28;20196;-82
2021/01/18 07:07:26;;;;;;;25.10;13.02;;;8.40;99.90;;;;;;4996294;28;20232;-82
2021/01/18 07:09:58;;;;;;;13.63;11.32;;;8.50;99.90;;;;;;4996279;28;20208;-82
2021/01/18 07:12:27;;;;;;;17.42;13.48;;;8.60;99.90;;;;;;4996210;28;20250;-82
2021/01/18 07:14:58;;;;;;;16.92;12.05;;;8.70;99.90;;;;;;4996273;28;20197;-82
2021/01/18 07:17:48;;;;;;;19.35;12.15;;;8.60;99.90;;;;;;4996270;28;20201;-82
2021/01/18 07:20:21;;;;;;;25.13;12.65;;;8.50;99.90;;;;;;4996064;28;20217;-82
2021/01/18 07:23:22;;;;;;;22.45;11.63;;;8.30;99.90;;;;;;4996117;28;20200;-82
2021/01/18 07:25:53;;;;;;;22.27;11.73;;;8.10;99.90;;;;;;4949992;28;20196;-82
2021/01/18 07:28:21;;;;;;;24.58;13.48;;;8.00;99.90;;;;;;4995903;28;20259;-82
2021/01/18 07:30:49;;;;;;;19.40;13.38;;;8.30;99.90;;;;;;4996043;28;20193;-82
2021/01/18 07:33:17;;;;;;;13.57;12.10;;;8.30;99.90;;;;;;4995804;28;20197;-81
2021/01/18 07:35:45;;;;;;;18.75;12.95;;;8.50;99.90;;;;;;4996022;28;20204;-81
2021/01/18 07:38:13;;;;;;;24.00;14.23;;;8.50;99.90;;;;;;4995776;28;20197;-80
2021/01/18 07:40:39;;;;;;;21.77;14.50;;;8.30;99.90;;;;;;4995743;28;20661;-82
2021/01/18 07:43:06;;;;;;;27.52;12.73;;;8.30;99.90;;;;;;4995557;28;20193;-81
2021/01/18 07:45:33;;;;;;;17.55;13.52;;;8.40;99.90;;;;;;4995426;28;20287;-82
2021/01/18 07:48:07;;;;;;;27.70;16.35;;;8.50;99.90;;;;;;4995868;28;20224;-83
2021/01/18 07:50:35;;;;;;;19.83;14.15;;;8.30;99.90;;;;;;4995530;28;20692;-81
2021/01/18 07:53:03;;;;;;;25.45;14.98;;;8.20;99.90;;;;;;4995694;28;20226;-86
2021/01/18 07:55:30;;;;;;;30.83;15.50;;;8.10;99.90;;;;;;4995642;28;20197;-82
2021/01/18 07:58:12;;;;;;;27.88;15.75;;;8.10;99.90;;;;;;4995251;28;20204;-81
2021/01/18 08:00:39;;;;;;;28.42;17.38;;;7.90;99.90;;;;;;4995261;28;20197;-81
2021/01/18 08:03:24;;;;;;;22.80;14.38;;;8.00;99.90;;;;;;4995622;28;20197;-81
2021/01/18 08:06:08;;;;;;;23.60;15.45;;;8.00;99.90;;;;;;4994986;28;20197;-81
2021/01/18 08:08:34;;;;;;;31.58;16.13;;;8.10;99.90;;;;;;4993869;28;20232;-81
2021/01/18 08:11:05;;;;;;;27.05;16.73;;;8.20;99.90;;;;;;4995139;28;20528;-81
2021/01/18 08:13:42;;;;;;;20.75;16.13;;;8.20;99.90;;;;;;4995288;28;20609;-81
2021/01/18 08:16:21;;;;;;;22.40;16.63;;;8.00;99.90;;;;;;4995453;28;20259;-82
2021/01/18 08:19:17;;;;;;;23.85;17.20;;;7.80;99.90;;;;;;4995138;28;20602;-81
2021/01/18 08:21:56;;;;;;;27.27;16.33;;;8.00;99.90;;;;;;4995107;28;20247;-81
2021/01/18 08:24:49;;;;;;;28.10;16.65;;;8.10;99.90;;;;;;4994949;28;20204;-82
2021/01/18 08:27:16;;;;;;;25.02;16.15;;;7.80;99.90;;;;;;4994801;28;20251;-81
2021/01/18 08:29:45;;;;;;;26.50;15.75;;;7.80;99.90;;;;;;4994639;28;20208;-81
2021/01/18 08:32:47;;;;;;;21.17;15.90;;;7.80;99.90;;;;;;4994763;28;20209;-82
2021/01/18 08:35:32;;;;;;;25.73;16.63;;;7.70;99.90;;;;;;4994979;28;20553;-81
2021/01/18 08:38:01;;;;;;;20.65;16.33;;;7.80;99.90;;;;;;4994762;28;20201;-81
2021/01/18 08:40:39;;;;;;;29.23;15.82;;;7.80;99.90;;;;;;4994585;28;20197;-81
2021/01/18 08:43:06;;;;;;;28.80;16.20;;;7.70;99.90;;;;;;4994747;28;20201;-81
2021/01/18 08:45:37;;;;;;;24.35;14.82;;;8.00;99.90;;;;;;4994301;28;20700;-81
2021/01/18 08:48:05;;;;;;;21.23;15.38;;;8.20;99.90;;;;;;4994608;28;20247;-81
2021/01/18 08:50:37;;;;;;;31.58;15.75;;;8.20;99.90;;;;;;4994488;28;20217;-81
2021/01/18 08:53:22;;;;;;;29.30;13.40;;;8.40;99.90;;;;;;4994796;28;20200;-81
2021/01/18 08:55:49;;;;;;;21.88;13.20;;;8.50;99.90;;;;;;4994816;28;20207;-81
2021/01/18 08:58:37;;;;;;;29.20;14.27;;;8.60;99.90;;;;;;4993877;28;20212;-81
2021/01/18 09:01:05;;;;;;;18.48;12.20;;;8.40;99.90;;;;;;4994248;28;20196;-81
2021/01/18 09:03:32;;;;;;;19.98;12.00;;;8.40;99.90;;;;;;4993466;28;20255;-82
2021/01/18 09:05:59;;;;;;;20.45;11.73;;;8.40;99.90;;;;;;4994318;28;20288;-82
2021/01/18 09:08:27;;;;;;;20.13;12.07;;;8.40;99.90;;;;;;4994351;28;20205;-82
2021/01/18 09:10:55;;;;;;;18.50;12.10;;;8.30;99.90;;;;;;4994281;28;20664;-82
2021/01/18 09:13:23;;;;;;;20.35;11.27;;;8.20;99.90;;;;;;4994344;28;20201;-82
2021/01/18 09:15:50;;;;;;;24.80;11.40;;;8.10;99.90;;;;;;4994309;28;20201;-80
2021/01/18 09:18:16;;;;;;;22.40;13.45;;;7.80;99.90;;;;;;4994035;28;20204;-80
2021/01/18 09:20:43;;;;;;;20.15;11.45;;;7.90;99.90;;;;;;4994003;28;21102;-80
2021/01/18 09:23:13;;;;;;;25.25;13.93;;;7.90;99.90;;;;;;4993921;28;20596;-79
2021/01/18 09:25:40;;;;;;;28.70;13.68;;;7.70;99.90;;;;;;4993946;28;20251;-80
2021/01/18 09:28:11;;;;;;;20.70;13.80;;;7.80;99.90;;;;;;4993210;28;20622;-80
2021/01/18 09:30:38;;;;;;;21.90;12.68;;;8.00;99.90;;;;;;4993950;28;20201;-80
2021/01/18 09:33:06;;;;;;;23.05;14.10;;;8.10;99.90;;;;;;4994043;28;20193;-80
2021/01/18 09:35:35;;;;;;;27.95;12.63;;;8.20;99.90;;;;;;4992448;28;20193;-80
2021/01/18 09:38:02;;;;;;;27.17;16.73;;;8.40;99.90;;;;;;4993715;28;20733;-90
2021/01/18 09:40:30;;;;;;;21.60;15.65;;;8.40;99.90;;;;;;4994145;28;20197;-91
2021/01/18 09:42:57;;;;;;;21.17;16.30;;;8.60;99.90;;;;;;4994200;28;20193;-91
2021/01/18 09:45:26;;;;;;;25.60;15.45;;;8.70;99.90;;;;;;4994068;28;20231;-91
2021/01/18 09:47:53;;;;;;;20.85;14.35;;;8.70;99.90;;;;;;4993882;28;20224;-90
2021/01/18 09:50:22;;;;;;;30.92;14.68;;;8.60;99.90;;;;;;4993820;28;20216;-90
2021/01/18 09:52:50;;;;;;;29.20;15.43;;;8.60;99.90;;;;;;4993908;28;20205;-89
2021/01/18 09:55:19;;;;;;;26.58;16.40;;;8.50;99.90;;;;;;4994212;28;20200;-90
2021/01/18 09:57:49;;;;;;;29.95;16.70;;;8.70;99.90;;;;;;4994133;28;20197;-91
2021/01/18 10:00:20;;;;;;;26.50;17.02;;;8.90;99.90;;;;;;4994228;28;20185;-90
2021/01/18 10:02:49;;;;;;;22.02;14.85;;;8.80;99.90;;;;;;4993997;28;20200;-90
2021/01/18 10:05:23;;;;;;;19.60;15.00;;;8.90;99.90;;;;;;4993825;28;20196;-90
2021/01/18 10:07:53;;;;;;;22.35;15.20;;;9.20;99.90;;;;;;4993863;28;20283;-91
2021/01/18 10:10:19;;;;;;;27.42;14.93;;;9.30;99.90;;;;;;4993781;28;20251;-90
2021/01/18 10:12:52;;;;;;;19.95;14.98;;;9.20;99.90;;;;;;4993685;28;20193;-90
2021/01/18 10:15:26;;;;;;;26.30;17.88;;;9.20;99.90;;;;;;4994061;28;20208;-89
2021/01/18 10:17:54;;;;;;;31.13;15.27;;;9.20;99.90;;;;;;4993966;28;20223;-92
2021/01/18 10:20:28;;;;;;;23.33;16.55;;;9.10;99.90;;;;;;4993586;28;20221;-90
2021/01/18 10:22:55;;;;;;;32.20;17.35;;;8.90;99.90;;;;;;4993756;28;20204;-90
2021/01/18 10:25:25;;;;;;;27.98;17.35;;;8.80;99.90;;;;;;4993862;28;20570;-89
2021/01/18 10:27:54;;;;;;;26.45;16.35;;;8.90;99.90;;;;;;4993834;28;20575;-91
2021/01/18 10:30:24;;;;;;;23.92;16.45;;;8.80;99.90;;;;;;4993867;28;20197;-89
2021/01/18 10:32:51;;;;;;;33.53;16.80;;;8.90;99.90;;;;;;4994490;28;20197;-90
2021/01/18 10:35:29;;;;;;;27.27;16.13;;;8.90;99.90;;;;;;4993736;28;20197;-91
2021/01/18 10:38:16;;;;;;;25.15;14.25;;;9.00;99.90;;;;;;4993507;28;20236;-90
2021/01/18 10:40:59;;;;;;;18.05;13.75;;;8.90;99.90;;;;;;4994982;28;20193;-90
2021/01/18 10:43:28;;;;;;;18.52;14.50;;;8.90;99.90;;;;;;4997140;28;20201;-90
2021/01/18 10:45:54;;;;;;;27.25;14.73;;;9.10;99.90;;;;;;4996850;28;20757;-89
2021/01/18 10:48:27;;;;;;;30.27;14.63;;;9.10;99.90;;;;;;4997370;28;20200;-91
2021/01/18 10:50:56;;;;;;;26.23;14.10;;;9.10;99.90;;;;;;4997069;28;20228;-90
2021/01/18 10:53:28;;;;;;;22.08;13.18;;;9.20;99.90;;;;;;4997263;28;20220;-91
2021/01/18 10:56:10;;;;;;;23.45;14.15;;;9.30;99.90;;;;;;4997088;28;20205;-90
2021/01/18 10:58:38;;;;;;;16.05;12.98;;;9.40;99.90;;;;;;4997127;28;20189;-90
2021/01/18 11:01:10;;;;;;;22.55;13.95;;;9.50;99.90;;;;;;4996867;28;20583;-82
2021/01/18 11:03:37;;;;;;;19.98;13.00;;;9.40;99.90;;;;;;4996893;28;20201;-83
2021/01/18 11:06:11;;;;;;;16.63;12.23;;;9.30;99.90;;;;;;4996569;28;20197;-84
2021/01/18 11:08:38;;;;;;;21.17;13.10;;;9.30;99.90;;;;;;4996561;28;20201;-83
2021/01/18 11:11:16;;;;;;;15.95;10.40;;;9.30;99.90;;;;;;4996429;28;20204;-82
2021/01/18 11:13:44;;;;;;;22.90;12.63;;;8.90;99.90;;;;;;4996573;28;20204;-83
2021/01/18 11:16:12;;;;;;;25.77;11.18;;;8.60;99.90;;;;;;4996609;28;20244;-82
2021/01/18 11:18:38;;;;;;;22.60;12.57;;;8.10;99.90;;;;;;4996204;28;20201;-83
2021/01/18 11:21:05;;;;;;;23.65;10.80;;;8.10;99.90;;;;;;4996111;28;20193;-82
2021/01/18 11:23:32;;;;;;;17.50;11.32;;;8.30;99.90;;;;;;4996378;28;20197;-82
2021/01/18 11:25:58;;;;;;;27.42;12.45;;;8.80;99.90;;;;;;4996081;28;20197;-82
2021/01/18 11:28:25;;;;;;;31.15;12.10;;;8.80;99.90;;;;;;4996041;28;20205;-82
2021/01/18 11:30:53;;;;;;;20.00;12.02;;;8.80;99.90;;;;;;4985710;28;20201;-82
2021/01/18 11:33:20;;;;;;;19.60;10.55;;;8.70;99.90;;;;;;4977063;28;20201;-82
2021/01/18 11:35:47;;;;;;;19.40;10.32;;;8.90;99.90;;;;;;4975765;28;20248;-82
2021/01/18 11:38:14;;;;;;;15.18;10.75;;;9.20;99.90;;;;;;4975854;28;20296;-82
2021/01/18 11:40:41;;;;;;;20.55;9.30;;;9.10;99.90;;;;;;4976530;28;20225;-82
2021/01/18 11:43:07;;;;;;;16.90;9.85;;;9.00;99.90;;;;;;4975165;28;20198;-82
2021/01/18 11:45:33;;;;;;;19.48;10.85;;;8.90;99.90;;;;;;4981387;28;20225;-82
2021/01/18 11:48:02;;;;;;;19.17;9.55;;;9.00;99.90;;;;;;4986132;28;20217;-82
2021/01/18 11:50:30;;;;;;;19.50;9.50;;;9.10;99.90;;;;;;4992492;28;20245;-82
2021/01/18 11:52:56;;;;;;;15.10;8.98;;;9.10;99.90;;;;;;4995202;28;20197;-82
2021/01/18 11:55:23;;;;;;;23.02;9.10;;;9.20;99.90;;;;;;4995363;28;20197;-81
2021/01/18 11:57:51;;;;;;;17.50;8.52;;;9.00;99.90;;;;;;4995400;28;20719;-82
2021/01/18 12:00:20;;;;;;;18.17;10.15;;;9.30;99.90;;;;;;4995459;28;20301;-82
2021/01/18 12:02:46;;;;;;;15.77;8.25;;;9.10;99.90;;;;;;4995586;28;20208;-82
2021/01/18 12:05:14;;;;;;;18.52;7.63;;;9.00;99.90;;;;;;4995579;28;20223;-82
2021/01/18 12:07:44;;;;;;;16.10;8.75;;;9.10;99.90;;;;;;4995347;28;20229;-81
2021/01/18 12:10:11;;;;;;;14.52;7.80;;;9.30;99.90;;;;;;4995332;28;20649;-81
2021/01/18 12:12:37;;;;;;;22.85;8.50;;;9.50;99.90;;;;;;4995283;28;20215;-81
2021/01/18 12:15:05;;;;;;;23.42;7.43;;;9.50;99.90;;;;;;4995091;28;20197;-81
2021/01/18 12:17:36;;;;;;;18.13;7.65;;;9.30;99.90;;;;;;4994942;28;20664;-80
2021/01/18 12:20:03;;;;;;;12.77;5.38;;;9.10;99.90;;;;;;4995093;28;20217;-81
2021/01/18 12:22:30;;;;;;;13.85;5.68;;;9.00;99.90;;;;;;4995152;28;20247;-81
2021/01/18 12:24:56;;;;;;;15.35;6.28;;;8.80;99.90;;;;;;4995071;28;20259;-81
2021/01/18 12:27:22;;;;;;;12.48;5.95;;;8.70;99.90;;;;;;4994896;28;20232;-81
2021/01/18 12:29:49;;;;;;;15.88;6.90;;;8.70;99.90;;;;;;4995039;28;20243;-81
2021/01/18 12:32:15;;;;;;;14.32;5.57;;;8.60;99.90;;;;;;4995134;28;20205;-81
2021/01/18 12:34:41;;;;;;;9.55;4.60;;;8.80;99.90;;;;;;4994862;28;20197;-81
2021/01/18 12:37:07;;;;;;;14.25;5.78;;;8.80;99.90;;;;;;4994649;28;20208;-81
2021/01/18 12:39:34;;;;;;;13.40;6.35;;;8.60;99.90;;;;;;4994623;28;20196;-81
2021/01/18 12:42:03;;;;;;;14.93;5.55;;;8.70;99.90;;;;;;4994740;28;20714;-81
2021/01/18 12:44:29;;;;;;;10.32;4.80;;;8.70;99.90;;;;;;4994632;28;20193;-81
2021/01/18 12:46:59;;;;;;;11.45;6.13;;;8.90;99.90;;;;;;4994574;28;20584;-81
2021/01/18 12:49:25;;;;;;;17.00;5.57;;;9.10;99.90;;;;;;4994269;28;20248;-81
2021/01/18 12:51:51;;;;;;;16.48;5.35;;;9.20;99.90;;;;;;4994561;28;20833;-81
2021/01/18 12:54:18;;;;;;;15.98;5.80;;;9.20;99.90;;;;;;4994537;28;20636;-81